To NAV CANADA Home Page Login to a new session Search on AWWS site Feedback and Comments Disclaimer Vers la page française équivalente Tips FAQ What's new on the site To the Forecasts and Observations / NOTAM section To "File a Flight Plan" website Publications and other links Update of the User's profile FIC Telephone Numbers My Weather Data Folder Route Weather Data Regional Weather Data Local Weather Data To the Forecasts and Observations / NOTAM section
Request Generated 04/20/2014 at 15:59:25 UTC . Weather information available at that time is displayed.

METAR/TAF

ISLAND LAKE/MB    

SPECI CYIV 201519Z 29009KT 15SM BKN009 OVC015 RMK SC6SC2=
METAR CYIV 201500Z 30009KT 8SM -SN BKN008 OVC015 01/01 A2986 RMK SC6SC2 FG SLP124=
SPECI CYIV 201450Z 29009KT 4SM -SN OVC008 RMK SC8=
SPECI CYIV 201415Z 29008KT 2SM -SN OVC008 RMK SC8=
METAR CYIV 201400Z CCA 28009KT 1 1/2SM -SN DRSN OVC007 00/00 A2984 RMK SN2SC6 FG SLP119=
METAR CYIV 201400Z 28009KT 1 1/2SM -SN DRSN OVC007 00/00 A2984 RMK SN2SC6 SLP119=
SPECI CYIV 201351Z 29010KT 1 1/2SM -SN DRSN OVC007 RMK SN2SF6 FG=
SPECI CYIV 201346Z 29009KT 10SM -SN BKN007 OVC010 RMK SF6SC2=
METAR CYIV 201300Z 30011KT 15SM BKN006 OVC010 00/00 A2982 RMK SF6SC2 SLP112=

TAF AMD CYIV 201431Z 2014/2101 29010KT 2SM -SN OVC008 TEMPO 2014/2016
P6SM -SNRA OVC015
FM201600 28010KT P6SM OVC020 TEMPO 2016/2020 5SM -RA BR OVC010
FM202000 28010KT P6SM BKN030 TEMPO 2020/2101 BKN020
RMK NXT FCST BY 201900Z=
Your time UTC time
Weather data provided by Environment Canada and NAV CANADA